Time;durP1;ratioP1;P1;durP2;ratioP2;P2;SDS_P1;SDS_P2;PMS_P1;PMS_P2;Temp;Humidity;BMP_temperature;BMP_pressure;BME280_temperature;BME280_humidity;BME280_pressure;Samples;Min_cycle;Max_cycle;Signal;HPM_P1;HPM_P2
2023/10/15 00:01:56;;;;;;;7.63;1.23;;;;;;;;;;5007700;28;20042;-78
2023/10/15 00:04:22;;;;;;;9.43;1.40;;;;;;;;;;5015729;28;20620;-78
2023/10/15 00:06:48;;;;;;;4.45;0.80;;;;;;;;;;4998171;28;20030;-78
2023/10/15 00:09:13;;;;;;;6.90;1.20;;;;;;;;;;5012387;28;20033;-78
2023/10/15 00:11:38;;;;;;;7.18;1.80;;;;;;;;;;5016105;28;20435;-79
2023/10/15 00:14:04;;;;;;;7.07;1.10;;;;;;;;;;5015847;28;20037;-79
2023/10/15 00:16:29;;;;;;;5.47;1.35;;;;;;;;;;5006650;28;20060;-78
2023/10/15 00:18:54;;;;;;;9.35;1.20;;;;;;;;;;5015662;28;20057;-78
2023/10/15 00:21:20;;;;;;;4.85;1.33;;;;;;;;;;5013262;28;20065;-77
2023/10/15 00:23:46;;;;;;;7.38;1.27;;;;;;;;;;5005486;28;20138;-78
2023/10/15 00:26:12;;;;;;;8.60;1.75;;;;;;;;;;5015734;28;20033;-78
2023/10/15 00:28:40;;;;;;;4.72;1.08;;;;;;;;;;5015954;28;20034;-78
2023/10/15 00:31:09;;;;;;;6.78;1.30;;;;;;;;;;5015914;28;20030;-78
2023/10/15 00:33:35;;;;;;;6.63;1.20;;;;;;;;;;5015639;28;20057;-78
2023/10/15 00:36:01;;;;;;;4.72;1.27;;;;;;;;;;5009484;28;20028;-78
2023/10/15 00:38:26;;;;;;;5.97;1.10;;;;;;;;;;5000974;28;20404;-78
2023/10/15 00:41:00;;;;;;;4.85;0.88;;;;;;;;;;5013344;28;20042;-77
2023/10/15 00:43:25;;;;;;;7.30;0.98;;;;;;;;;;5006742;28;20056;-77
2023/10/15 00:45:51;;;;;;;7.25;1.10;;;;;;;;;;4998005;28;20034;-78
2023/10/15 00:48:24;;;;;;;6.65;1.15;;;;;;;;;;5014263;28;20083;-78
2023/10/15 00:50:51;;;;;;;7.97;1.52;;;;;;;;;;5010506;28;20057;-78
2023/10/15 00:53:21;;;;;;;4.53;0.82;;;;;;;;;;5015781;28;20037;-78
2023/10/15 00:55:50;;;;;;;6.78;1.67;;;;;;;;;;5003480;28;20084;-78
2023/10/15 00:58:21;;;;;;;6.55;1.15;;;;;;;;;;5015541;28;20524;-78
2023/10/15 01:00:53;;;;;;;7.53;1.90;;;;;;;;;;4981073;28;20034;-78
2023/10/15 01:03:33;;;;;;;6.63;1.20;;;;;;;;;;5008605;28;20265;-78
2023/10/15 01:06:01;;;;;;;9.38;1.08;;;;;;;;;;5006114;28;20418;-78
2023/10/15 01:08:34;;;;;;;11.38;1.77;;;;;;;;;;5013304;28;20038;-78
2023/10/15 01:11:08;;;;;;;5.35;1.08;;;;;;;;;;5014409;28;20022;-78
2023/10/15 01:13:34;;;;;;;7.05;1.13;;;;;;;;;;5004818;28;20034;-77
2023/10/15 01:16:03;;;;;;;5.18;1.10;;;;;;;;;;5014941;28;20041;-79
2023/10/15 01:18:28;;;;;;;6.25;1.55;;;;;;;;;;5014643;28;20394;-78
2023/10/15 01:20:54;;;;;;;5.03;0.88;;;;;;;;;;4997720;28;20022;-77
2023/10/15 01:23:32;;;;;;;10.80;1.48;;;;;;;;;;5014779;28;20026;-79
2023/10/15 01:25:58;;;;;;;6.63;1.15;;;;;;;;;;5001069;28;20049;-78
2023/10/15 01:28:35;;;;;;;8.98;1.48;;;;;;;;;;5005815;28;20034;-78
2023/10/15 01:31:02;;;;;;;6.80;1.20;;;;;;;;;;5002406;28;20122;-77
2023/10/15 01:33:29;;;;;;;5.15;1.20;;;;;;;;;;5014253;28;20482;-78
2023/10/15 01:35:57;;;;;;;6.65;1.33;;;;;;;;;;5014418;28;20430;-78
2023/10/15 01:38:27;;;;;;;9.32;1.23;;;;;;;;;;4991206;28;20037;-78
2023/10/15 01:40:56;;;;;;;5.70;1.00;;;;;;;;;;5014014;28;20030;-78
2023/10/15 01:43:22;;;;;;;12.50;2.38;;;;;;;;;;5005055;28;20030;-75
2023/10/15 01:45:47;;;;;;;6.18;1.38;;;;;;;;;;5014370;28;20025;-79
2023/10/15 01:48:30;;;;;;;8.45;1.52;;;;;;;;;;5005323;28;20030;-78
2023/10/15 01:51:04;;;;;;;8.95;1.25;;;;;;;;;;5012699;28;20053;-78
2023/10/15 01:53:29;;;;;;;6.85;1.35;;;;;;;;;;5005178;28;20030;-78
2023/10/15 01:55:59;;;;;;;7.20;1.13;;;;;;;;;;5014073;28;20028;-78
2023/10/15 01:58:30;;;;;;;11.38;2.22;;;;;;;;;;5000198;28;20406;-78
2023/10/15 02:00:56;;;;;;;7.85;1.30;;;;;;;;;;4991072;28;20029;-78
2023/10/15 02:03:21;;;;;;;8.95;1.80;;;;;;;;;;4993817;28;20040;-78
2023/10/15 02:05:47;;;;;;;7.30;1.55;;;;;;;;;;5003419;28;20100;-78
2023/10/15 02:08:13;;;;;;;11.05;1.85;;;;;;;;;;5011205;28;20109;-78
2023/10/15 02:10:46;;;;;;;5.47;1.13;;;;;;;;;;5004999;28;20030;-77
2023/10/15 02:13:12;;;;;;;10.30;1.30;;;;;;;;;;5004977;28;20030;-78
2023/10/15 02:15:39;;;;;;;6.45;1.23;;;;;;;;;;4988572;28;20037;-78
2023/10/15 02:18:13;;;;;;;7.50;1.00;;;;;;;;;;4981287;28;20028;-77
2023/10/15 02:23:09;;;;;;;6.45;1.10;;;;;;;;;;5004841;28;20116;-78
2023/10/15 02:25:41;;;;;;;7.22;1.40;;;;;;;;;;4988543;28;20091;-78
2023/10/15 02:28:09;;;;;;;8.68;1.75;;;;;;;;;;5013829;28;20013;-76
2023/10/15 02:30:35;;;;;;;6.93;1.10;;;;;;;;;;5004409;28;20072;-77
2023/10/15 02:33:01;;;;;;;6.60;1.25;;;;;;;;;;5013691;28;20077;-78
2023/10/15 02:35:39;;;;;;;10.20;1.65;;;;;;;;;;4989216;28;20037;-78
2023/10/15 02:38:08;;;;;;;7.60;1.35;;;;;;;;;;5010680;28;20026;-78
2023/10/15 02:40:37;;;;;;;8.45;1.50;;;;;;;;;;5005596;28;20038;-78
2023/10/15 02:43:06;;;;;;;8.05;1.17;;;;;;;;;;4999213;28;20030;-78
2023/10/15 02:45:35;;;;;;;6.30;1.60;;;;;;;;;;5000673;28;20058;-77
2023/10/15 02:48:10;;;;;;;8.85;2.05;;;;;;;;;;5019708;28;20045;-78
2023/10/15 02:50:35;;;;;;;7.15;1.65;;;;;;;;;;5017799;28;20034;-78
2023/10/15 02:53:04;;;;;;;11.52;1.90;;;;;;;;;;4994252;28;20024;-78
2023/10/15 02:55:36;;;;;;;5.10;1.08;;;;;;;;;;4993936;28;20030;-78
2023/10/15 02:58:02;;;;;;;11.02;2.03;;;;;;;;;;5001635;28;20048;-77
2023/10/15 03:02:53;;;;;;;11.88;1.60;;;;;;;;;;5001759;28;20116;-78
2023/10/15 03:05:18;;;;;;;13.32;2.05;;;;;;;;;;5013513;28;20084;-78
2023/10/15 03:07:44;;;;;;;9.18;1.88;;;;;;;;;;5020143;28;20056;-78
2023/10/15 03:10:10;;;;;;;8.80;1.27;;;;;;;;;;5020006;28;20065;-78
2023/10/15 03:12:35;;;;;;;11.15;1.77;;;;;;;;;;5019857;28;20172;-77
2023/10/15 03:15:00;;;;;;;7.68;1.30;;;;;;;;;;5004411;28;20026;-78
2023/10/15 03:17:29;;;;;;;7.03;1.13;;;;;;;;;;5010707;28;20425;-78
2023/10/15 03:19:55;;;;;;;6.38;1.55;;;;;;;;;;5019676;28;20553;-78
2023/10/15 03:22:23;;;;;;;12.80;1.48;;;;;;;;;;5019795;28;20117;-78
2023/10/15 03:24:49;;;;;;;8.80;1.45;;;;;;;;;;4999467;28;20018;-79
2023/10/15 03:27:17;;;;;;;10.02;1.05;;;;;;;;;;5015364;28;20025;-78
2023/10/15 03:29:42;;;;;;;8.63;1.23;;;;;;;;;;5013463;28;20037;-78
2023/10/15 03:32:12;;;;;;;10.00;1.55;;;;;;;;;;5019945;28;20026;-78
2023/10/15 03:35:32;;;;;;;9.75;1.90;;;;;;;;;;5019728;28;20433;-78
2023/10/15 03:37:27;;;;;;;8.65;1.75;;;;;;;;;;5009261;28;20128;-79
2023/10/15 03:39:55;;;;;;;7.90;1.20;;;;;;;;;;5019510;28;20033;-78
2023/10/15 03:42:26;;;;;;;9.90;1.75;;;;;;;;;;5019292;28;20546;-79
2023/10/15 03:44:57;;;;;;;10.68;1.75;;;;;;;;;;5018358;28;20045;-79
2023/10/15 03:47:22;;;;;;;9.55;1.90;;;;;;;;;;5009650;28;20132;-78
2023/10/15 03:49:51;;;;;;;10.73;1.80;;;;;;;;;;5019361;28;20077;-77
2023/10/15 03:52:21;;;;;;;4.75;1.58;;;;;;;;;;5019442;28;20034;-78
2023/10/15 03:54:50;;;;;;;7.78;1.98;;;;;;;;;;5016090;28;20073;-78
2023/10/15 03:57:17;;;;;;;11.23;1.80;;;;;;;;;;4999413;28;20065;-78
2023/10/15 03:59:44;;;;;;;7.07;1.70;;;;;;;;;;5016953;28;20066;-78
2023/10/15 04:02:22;;;;;;;8.75;1.42;;;;;;;;;;5016307;28;20036;-78
2023/10/15 04:04:56;;;;;;;9.85;1.75;;;;;;;;;;5016369;28;20034;-78
2023/10/15 04:07:23;;;;;;;16.15;1.58;;;;;;;;;;5012888;28;20114;-78
2023/10/15 04:09:50;;;;;;;9.85;1.63;;;;;;;;;;5003494;28;20038;-79
2023/10/15 04:12:18;;;;;;;9.02;1.40;;;;;;;;;;5016335;28;20034;-78
2023/10/15 04:14:43;;;;;;;10.52;1.75;;;;;;;;;;5016032;28;20036;-78
2023/10/15 04:17:09;;;;;;;10.65;1.52;;;;;;;;;;5015975;28;20041;-78
2023/10/15 04:19:36;;;;;;;6.47;1.50;;;;;;;;;;5010592;28;20042;-78
2023/10/15 04:22:10;;;;;;;11.20;1.33;;;;;;;;;;5016067;28;20033;-78
2023/10/15 04:24:41;;;;;;;10.90;2.03;;;;;;;;;;5014593;28;20072;-78
2023/10/15 04:27:07;;;;;;;8.40;1.38;;;;;;;;;;4994813;28;20081;-78
2023/10/15 04:29:48;;;;;;;8.93;1.45;;;;;;;;;;4998534;28;20375;-78
2023/10/15 04:32:18;;;;;;;10.25;1.55;;;;;;;;;;5015801;28;20036;-78
2023/10/15 04:34:44;;;;;;;7.57;1.50;;;;;;;;;;4998219;28;20409;-79
2023/10/15 04:37:16;;;;;;;9.75;1.52;;;;;;;;;;4998248;28;20061;-78
2023/10/15 04:39:51;;;;;;;7.95;1.88;;;;;;;;;;5012213;28;20022;-78
2023/10/15 04:42:21;;;;;;;9.95;1.42;;;;;;;;;;5015339;28;20520;-77
2023/10/15 04:44:47;;;;;;;10.02;1.58;;;;;;;;;;5015721;28;20077;-79
2023/10/15 04:47:12;;;;;;;8.38;1.65;;;;;;;;;;5015816;28;20671;-78
2023/10/15 04:49:37;;;;;;;7.05;1.40;;;;;;;;;;5015234;28;20037;-78
2023/10/15 04:52:13;;;;;;;8.32;1.27;;;;;;;;;;5015447;28;20034;-76
2023/10/15 04:54:38;;;;;;;8.00;1.33;;;;;;;;;;5011882;28;20032;-77
2023/10/15 04:57:04;;;;;;;14.00;1.55;;;;;;;;;;5015914;28;20522;-79
2023/10/15 04:59:29;;;;;;;10.43;1.67;;;;;;;;;;5014952;28;20406;-78
2023/10/15 05:01:54;;;;;;;6.72;1.50;;;;;;;;;;5015217;28;20084;-78
2023/10/15 05:04:19;;;;;;;5.70;1.50;;;;;;;;;;5015244;28;20037;-79
2023/10/15 05:06:44;;;;;;;8.45;1.65;;;;;;;;;;5015208;28;20026;-78
2023/10/15 05:09:20;;;;;;;7.62;1.10;;;;;;;;;;5014732;28;20601;-78
2023/10/15 05:11:46;;;;;;;10.27;2.40;;;;;;;;;;5004931;28;20069;-78
2023/10/15 05:14:11;;;;;;;10.07;1.77;;;;;;;;;;5014929;28;20034;-76
2023/10/15 05:16:36;;;;;;;8.30;1.23;;;;;;;;;;5014917;28;20026;-78
2023/10/15 05:19:02;;;;;;;5.63;1.05;;;;;;;;;;5015197;28;20497;-78
2023/10/15 05:21:29;;;;;;;11.55;2.05;;;;;;;;;;5014706;28;20030;-77
2023/10/15 05:23:55;;;;;;;7.80;1.42;;;;;;;;;;5004950;28;20161;-78
2023/10/15 05:26:20;;;;;;;8.45;1.27;;;;;;;;;;5014680;28;20088;-78
2023/10/15 05:28:47;;;;;;;10.60;2.04;;;;;;;;;;5013323;28;20038;-78
2023/10/15 05:31:12;;;;;;;7.22;1.27;;;;;;;;;;5014630;28;20034;-78
2023/10/15 05:33:37;;;;;;;8.23;1.40;;;;;;;;;;5014330;28;20391;-77
2023/10/15 05:36:03;;;;;;;4.63;1.20;;;;;;;;;;5013989;28;20028;-78
2023/10/15 05:38:29;;;;;;;9.60;1.67;;;;;;;;;;5014146;28;20097;-78
2023/10/15 05:40:57;;;;;;;8.18;1.67;;;;;;;;;;5014393;28;20076;-79
2023/10/15 05:43:23;;;;;;;7.93;1.50;;;;;;;;;;5009283;28;20026;-78
2023/10/15 05:45:48;;;;;;;15.32;2.22;;;;;;;;;;5014460;28;20041;-78
2023/10/15 05:48:13;;;;;;;8.95;1.50;;;;;;;;;;5014497;28;20037;-78
2023/10/15 05:50:39;;;;;;;7.13;1.35;;;;;;;;;;5014060;28;20022;-78
2023/10/15 05:53:06;;;;;;;11.07;2.03;;;;;;;;;;5014203;28;20521;-78
2023/10/15 05:55:32;;;;;;;5.57;1.00;;;;;;;;;;5014222;28;20108;-78
2023/10/15 05:57:58;;;;;;;8.10;1.77;;;;;;;;;;5014462;28;20032;-78
2023/10/15 06:00:26;;;;;;;7.40;1.25;;;;;;;;;;4996980;28;20573;-78
2023/10/15 06:02:51;;;;;;;6.97;1.35;;;;;;;;;;5013805;28;20110;-78
2023/10/15 06:05:17;;;;;;;14.27;1.70;;;;;;;;;;4996511;28;20058;-79
2023/10/15 06:07:45;;;;;;;16.33;1.83;;;;;;;;;;5013931;28;20034;-77
2023/10/15 06:10:11;;;;;;;5.57;1.83;;;;;;;;;;5013908;28;20045;-77
2023/10/15 06:12:40;;;;;;;9.70;1.48;;;;;;;;;;5014328;28;20051;-78
2023/10/15 06:15:06;;;;;;;11.65;1.88;;;;;;;;;;5013856;28;20036;-78
2023/10/15 06:17:32;;;;;;;7.22;1.58;;;;;;;;;;5004358;28;20490;-78
2023/10/15 06:19:58;;;;;;;7.32;1.45;;;;;;;;;;5013998;28;20026;-78
2023/10/15 06:22:23;;;;;;;7.53;1.95;;;;;;;;;;5013835;28;20550;-78
2023/10/15 06:24:48;;;;;;;7.72;1.40;;;;;;;;;;4994660;28;20038;-78
2023/10/15 06:27:13;;;;;;;9.77;1.50;;;;;;;;;;4996785;28;20045;-78
2023/10/15 06:29:38;;;;;;;9.90;1.42;;;;;;;;;;5004933;28;20034;-78
2023/10/15 06:32:04;;;;;;;8.30;2.08;;;;;;;;;;5013819;28;20034;-79
2023/10/15 06:34:29;;;;;;;9.73;1.73;;;;;;;;;;5013689;28;20063;-79
2023/10/15 06:36:54;;;;;;;8.43;1.48;;;;;;;;;;5014092;28;20040;-78
2023/10/15 06:39:21;;;;;;;10.48;1.70;;;;;;;;;;5014136;28;20037;-79
2023/10/15 06:41:47;;;;;;;12.88;2.45;;;;;;;;;;5009764;28;20033;-78
2023/10/15 06:44:12;;;;;;;7.95;1.48;;;;;;;;;;5013973;28;20113;-78
2023/10/15 06:46:38;;;;;;;6.60;1.75;;;;;;;;;;5012113;28;20032;-79
2023/10/15 06:49:03;;;;;;;6.65;1.30;;;;;;;;;;5013683;28;20037;-78
2023/10/15 06:51:29;;;;;;;8.73;1.40;;;;;;;;;;5014064;28;20044;-78
2023/10/15 06:53:54;;;;;;;9.73;1.30;;;;;;;;;;5014085;28;20406;-79
2023/10/15 06:56:19;;;;;;;8.95;1.63;;;;;;;;;;5013597;28;20037;-79
2023/10/15 06:58:44;;;;;;;6.32;1.33;;;;;;;;;;5013645;28;20088;-78
2023/10/15 07:01:10;;;;;;;8.80;1.42;;;;;;;;;;5013652;28;20030;-77
2023/10/15 07:03:35;;;;;;;11.45;1.52;;;;;;;;;;5013832;28;20097;-78
2023/10/15 07:06:01;;;;;;;8.43;1.30;;;;;;;;;;5013432;28;20029;-79
2023/10/15 07:08:26;;;;;;;7.15;1.20;;;;;;;;;;5013526;28;20402;-79
2023/10/15 07:10:51;;;;;;;10.65;1.70;;;;;;;;;;5013849;28;20025;-79
2023/10/15 07:13:19;;;;;;;9.93;1.48;;;;;;;;;;5013562;28;20029;-79
2023/10/15 07:15:47;;;;;;;5.22;1.10;;;;;;;;;;5013577;28;20049;-78
2023/10/15 07:18:13;;;;;;;8.98;1.45;;;;;;;;;;5013527;28;20095;-76
2023/10/15 07:20:39;;;;;;;7.13;1.73;;;;;;;;;;5013826;28;20109;-79
2023/10/15 07:23:04;;;;;;;8.55;1.88;;;;;;;;;;5005052;28;20045;-79
2023/10/15 07:25:30;;;;;;;9.20;1.80;;;;;;;;;;5003728;28;20096;-79
2023/10/15 07:27:56;;;;;;;13.48;2.75;;;;;;;;;;5013522;28;20227;-78
2023/10/15 07:30:22;;;;;;;10.57;2.17;;;;;;;;;;5014117;28;20045;-79
2023/10/15 07:32:47;;;;;;;9.18;1.80;;;;;;;;;;5016001;28;20148;-78
2023/10/15 07:35:13;;;;;;;7.68;1.65;;;;;;;;;;5008087;28;20029;-78
2023/10/15 07:37:43;;;;;;;7.13;1.45;;;;;;;;;;5017079;28;20111;-79
2023/10/15 07:40:16;;;;;;;11.75;1.60;;;;;;;;;;5017643;28;20033;-78
2023/10/15 07:42:42;;;;;;;11.05;1.30;;;;;;;;;;5014053;28;20068;-78
2023/10/15 07:45:07;;;;;;;8.95;1.40;;;;;;;;;;5012638;28;20498;-79
2023/10/15 07:47:33;;;;;;;8.80;1.35;;;;;;;;;;5016822;28;20072;-79
2023/10/15 07:49:59;;;;;;;7.85;1.75;;;;;;;;;;5005618;28;20034;-78
2023/10/15 07:52:24;;;;;;;9.88;1.75;;;;;;;;;;5067223;23;20060;-81
2023/10/15 07:54:50;;;;;;;9.32;1.70;;;;;;;;;;5053912;28;20397;-82
2023/10/15 07:57:15;;;;;;;7.30;1.50;;;;;;;;;;5054390;28;20504;-81
2023/10/15 07:59:40;;;;;;;7.75;1.48;;;;;;;;;;5054230;28;20047;-81
2023/10/15 08:02:07;;;;;;;6.22;1.08;;;;;;;;;;5054117;28;20040;-81
2023/10/15 08:04:32;;;;;;;6.82;1.45;;;;;;;;;;5035952;28;20037;-81
2023/10/15 08:06:59;;;;;;;13.07;2.17;;;;;;;;;;5036078;28;20033;-81
2023/10/15 08:09:24;;;;;;;9.18;1.83;;;;;;;;;;5053766;28;20403;-82
2023/10/15 08:11:49;;;;;;;9.07;1.83;;;;;;;;;;5053750;28;20088;-82
2023/10/15 08:14:15;;;;;;;5.95;1.45;;;;;;;;;;5053984;28;20023;-82
2023/10/15 08:16:40;;;;;;;7.13;1.77;;;;;;;;;;5054067;28;20035;-82
2023/10/15 08:19:06;;;;;;;9.60;1.55;;;;;;;;;;5053759;28;20032;-82
2023/10/15 08:21:31;;;;;;;8.27;1.40;;;;;;;;;;5035826;28;20033;-82
2023/10/15 08:23:57;;;;;;;7.43;1.33;;;;;;;;;;5053502;28;20029;-82
2023/10/15 08:26:22;;;;;;;9.25;1.52;;;;;;;;;;5035855;28;20404;-82
2023/10/15 08:28:48;;;;;;;7.13;1.00;;;;;;;;;;5053727;28;20040;-82
2023/10/15 08:31:13;;;;;;;10.68;2.30;;;;;;;;;;5053493;28;20052;-82
2023/10/15 08:33:38;;;;;;;8.68;1.42;;;;;;;;;;5053449;28;20052;-82
2023/10/15 08:36:03;;;;;;;6.80;1.70;;;;;;;;;;5053476;28;20106;-82
2023/10/15 08:38:29;;;;;;;6.80;1.92;;;;;;;;;;5035526;28;20029;-82
2023/10/15 08:40:55;;;;;;;8.88;1.88;;;;;;;;;;5035798;28;20037;-82
2023/10/15 08:43:26;;;;;;;8.60;1.70;;;;;;;;;;5052398;28;20028;-82
2023/10/15 08:45:52;;;;;;;10.02;2.75;;;;;;;;;;5049446;28;20029;-82
2023/10/15 08:48:18;;;;;;;10.10;1.60;;;;;;;;;;5043515;28;20029;-82
2023/10/15 08:50:44;;;;;;;8.68;1.60;;;;;;;;;;5052406;28;20037;-82
2023/10/15 08:53:09;;;;;;;9.43;2.20;;;;;;;;;;5034947;28;20025;-82
2023/10/15 08:55:38;;;;;;;9.75;1.85;;;;;;;;;;5053220;28;20131;-82
2023/10/15 08:58:06;;;;;;;9.38;2.03;;;;;;;;;;5050201;28;20039;-81
2023/10/15 09:00:32;;;;;;;9.57;2.08;;;;;;;;;;5053093;28;20048;-82
2023/10/15 09:03:00;;;;;;;9.65;1.67;;;;;;;;;;5043597;28;20025;-82
2023/10/15 09:05:25;;;;;;;11.57;2.20;;;;;;;;;;5053026;28;20032;-82
2023/10/15 09:07:52;;;;;;;7.60;2.10;;;;;;;;;;5034852;28;20451;-82
2023/10/15 09:10:17;;;;;;;7.30;1.75;;;;;;;;;;5052778;28;20033;-82
2023/10/15 09:12:42;;;;;;;6.88;2.05;;;;;;;;;;5052662;28;20401;-82
2023/10/15 09:15:17;;;;;;;10.32;2.30;;;;;;;;;;5052771;28;20504;-82
2023/10/15 09:17:49;;;;;;;8.05;1.90;;;;;;;;;;5035029;28;20043;-82
2023/10/15 09:20:17;;;;;;;7.03;1.40;;;;;;;;;;5046192;28;20033;-82
2023/10/15 09:22:44;;;;;;;7.90;1.60;;;;;;;;;;5052350;28;20039;-82
2023/10/15 09:25:09;;;;;;;9.77;2.35;;;;;;;;;;5052425;28;20091;-82
2023/10/15 09:27:44;;;;;;;10.20;1.77;;;;;;;;;;5052769;28;20028;-82
2023/10/15 09:30:18;;;;;;;7.43;2.10;;;;;;;;;;5052504;28;20033;-82
2023/10/15 09:32:47;;;;;;;4.15;1.33;;;;;;;;;;5034375;28;20029;-82
2023/10/15 09:35:13;;;;;;;7.32;1.65;;;;;;;;;;5052424;28;20029;-82
2023/10/15 09:37:39;;;;;;;8.18;1.77;;;;;;;;;;5052568;28;20035;-82
2023/10/15 09:40:09;;;;;;;6.82;1.58;;;;;;;;;;5052271;28;20108;-81
2023/10/15 09:42:35;;;;;;;6.30;1.45;;;;;;;;;;5052249;28;20033;-82
2023/10/15 09:45:02;;;;;;;7.90;1.58;;;;;;;;;;5051862;28;20079;-81
2023/10/15 09:47:27;;;;;;;9.35;2.20;;;;;;;;;;5052054;28;20033;-82
2023/10/15 09:49:52;;;;;;;7.68;1.73;;;;;;;;;;5052190;28;20032;-82
2023/10/15 09:52:18;;;;;;;4.53;1.10;;;;;;;;;;5051872;28;20643;-82
2023/10/15 09:54:44;;;;;;;5.60;1.75;;;;;;;;;;5038088;28;20114;-82
2023/10/15 09:57:10;;;;;;;6.85;1.65;;;;;;;;;;5051560;28;20154;-82
2023/10/15 09:59:35;;;;;;;5.55;1.80;;;;;;;;;;5052093;28;20526;-82
2023/10/15 10:02:06;;;;;;;6.53;1.30;;;;;;;;;;5051740;28;20124;-82
2023/10/15 10:04:52;;;;;;;5.00;1.25;;;;;;;;;;5034005;28;20401;-82
2023/10/15 10:07:38;;;;;;;4.50;1.52;;;;;;;;;;5050269;28;20116;-82
2023/10/15 10:10:22;;;;;;;8.07;1.52;;;;;;;;;;5050198;28;20032;-82
2023/10/15 10:12:59;;;;;;;7.55;1.92;;;;;;;;;;5012047;28;20037;-82
2023/10/15 10:15:41;;;;;;;7.82;1.45;;;;;;;;;;5051729;28;20033;-82
2023/10/15 10:18:07;;;;;;;10.10;1.50;;;;;;;;;;5047868;28;20464;-82
2023/10/15 10:20:33;;;;;;;6.10;1.73;;;;;;;;;;5033568;28;20484;-82
2023/10/15 10:23:05;;;;;;;5.90;1.60;;;;;;;;;;5050945;28;20044;-82
2023/10/15 10:25:31;;;;;;;6.25;1.35;;;;;;;;;;5033489;28;20112;-82
2023/10/15 10:28:04;;;;;;;6.53;1.30;;;;;;;;;;5051470;28;20401;-82
2023/10/15 10:30:30;;;;;;;6.38;1.55;;;;;;;;;;5041600;28;20404;-82
2023/10/15 10:32:56;;;;;;;5.45;1.50;;;;;;;;;;5051171;28;20036;-82
2023/10/15 10:35:24;;;;;;;6.75;1.15;;;;;;;;;;5033519;28;20025;-82
2023/10/15 10:38:11;;;;;;;6.85;1.50;;;;;;;;;;5051326;28;20029;-82
2023/10/15 10:40:49;;;;;;;9.50;1.67;;;;;;;;;;5049970;28;20177;-82
2023/10/15 10:43:23;;;;;;;6.60;1.90;;;;;;;;;;5047623;28;20033;-82
2023/10/15 10:45:49;;;;;;;4.93;1.67;;;;;;;;;;5033370;28;20568;-82
2023/10/15 10:48:19;;;;;;;6.78;1.55;;;;;;;;;;5042197;28;20170;-82
2023/10/15 10:50:44;;;;;;;8.00;1.65;;;;;;;;;;5050965;28;20405;-82
2023/10/15 10:53:10;;;;;;;5.00;1.42;;;;;;;;;;5051106;28;20037;-82
2023/10/15 10:55:36;;;;;;;5.22;1.00;;;;;;;;;;5051266;28;20037;-82
2023/10/15 10:58:03;;;;;;;4.07;1.40;;;;;;;;;;5033404;28;20106;-82
2023/10/15 11:00:30;;;;;;;7.90;1.25;;;;;;;;;;5051219;28;20128;-82
2023/10/15 11:02:57;;;;;;;5.50;1.40;;;;;;;;;;5050891;28;20045;-82
2023/10/15 11:05:23;;;;;;;6.85;1.35;;;;;;;;;;5051151;28;20041;-82
2023/10/15 11:07:48;;;;;;;3.20;1.05;;;;;;;;;;5018517;28;20136;-82
2023/10/15 11:10:14;;;;;;;7.50;1.23;;;;;;;;;;5055085;28;20556;-82
2023/10/15 11:12:39;;;;;;;5.80;1.23;;;;;;;;;;5037112;28;20283;-82
2023/10/15 11:15:08;;;;;;;5.32;1.52;;;;;;;;;;5044971;28;20029;-82
2023/10/15 11:17:33;;;;;;;3.13;1.27;;;;;;;;;;5037211;28;20029;-82
2023/10/15 11:19:58;;;;;;;8.73;1.83;;;;;;;;;;5036625;28;20035;-82
2023/10/15 11:22:24;;;;;;;6.68;1.65;;;;;;;;;;5054918;28;20041;-82
2023/10/15 11:24:49;;;;;;;4.50;1.17;;;;;;;;;;5036777;28;20028;-82
2023/10/15 11:27:19;;;;;;;3.80;1.20;;;;;;;;;;5054853;28;20271;-82
2023/10/15 11:29:44;;;;;;;5.70;1.23;;;;;;;;;;5036813;28;20037;-82
2023/10/15 11:32:11;;;;;;;5.43;1.13;;;;;;;;;;5045487;28;20033;-82
2023/10/15 11:34:38;;;;;;;6.28;1.35;;;;;;;;;;5054411;28;20116;-82
2023/10/15 11:37:05;;;;;;;4.28;0.98;;;;;;;;;;5054690;28;20029;-82
2023/10/15 11:39:37;;;;;;;5.03;0.85;;;;;;;;;;5054622;28;20075;-82
2023/10/15 11:42:09;;;;;;;3.95;1.10;;;;;;;;;;5036584;28;20052;-82
2023/10/15 11:44:41;;;;;;;5.45;1.13;;;;;;;;;;5051141;28;20419;-82
2023/10/15 11:47:11;;;;;;;5.85;0.95;;;;;;;;;;5054425;28;20029;-82
2023/10/15 11:49:42;;;;;;;6.10;0.88;;;;;;;;;;5054201;28;20044;-82
2023/10/15 11:52:11;;;;;;;6.03;0.80;;;;;;;;;;5054069;28;20037;-82
2023/10/15 11:54:43;;;;;;;5.95;1.00;;;;;;;;;;5036075;28;20487;-82
2023/10/15 11:57:15;;;;;;;4.20;1.10;;;;;;;;;;5033727;28;20149;-82
2023/10/15 11:59:40;;;;;;;4.65;0.93;;;;;;;;;;5054272;28;20029;-82
2023/10/15 12:02:10;;;;;;;5.50;1.30;;;;;;;;;;5036081;28;20397;-82
2023/10/15 12:04:36;;;;;;;4.60;0.80;;;;;;;;;;5054058;28;20311;-82
2023/10/15 12:07:01;;;;;;;3.70;0.90;;;;;;;;;;5053961;28;20461;-82
2023/10/15 12:09:26;;;;;;;5.32;1.08;;;;;;;;;;5052010;28;20298;-82
2023/10/15 12:11:51;;;;;;;5.82;1.05;;;;;;;;;;5053855;28;20029;-82
2023/10/15 12:14:17;;;;;;;3.22;1.20;;;;;;;;;;5054103;28;20029;-82
2023/10/15 12:16:43;;;;;;;2.63;0.82;;;;;;;;;;5053854;28;20056;-82
2023/10/15 12:19:09;;;;;;;3.63;0.90;;;;;;;;;;5034855;28;20061;-82
2023/10/15 12:21:37;;;;;;;3.00;1.00;;;;;;;;;;5053677;28;20088;-82
2023/10/15 12:24:03;;;;;;;3.97;0.98;;;;;;;;;;5053440;28;20368;-82
2023/10/15 12:26:29;;;;;;;7.90;1.15;;;;;;;;;;5053544;28;20094;-81
2023/10/15 12:28:54;;;;;;;3.30;0.52;;;;;;;;;;5053338;28;20060;-81
2023/10/15 12:31:19;;;;;;;4.43;0.63;;;;;;;;;;5049534;28;20029;-81
2023/10/15 12:33:46;;;;;;;1.95;0.55;;;;;;;;;;5053868;28;20112;-81
2023/10/15 12:36:11;;;;;;;3.25;0.70;;;;;;;;;;5053484;28;20108;-81
2023/10/15 12:38:39;;;;;;;2.97;0.95;;;;;;;;;;5035308;28;20111;-81
2023/10/15 12:41:04;;;;;;;1.45;0.47;;;;;;;;;;5053313;28;20047;-81
2023/10/15 12:43:31;;;;;;;6.90;0.80;;;;;;;;;;5053314;28;20112;-81
2023/10/15 12:45:56;;;;;;;4.75;0.90;;;;;;;;;;5035685;28;20079;-82
2023/10/15 12:48:21;;;;;;;2.85;0.63;;;;;;;;;;5053244;28;20024;-81
2023/10/15 12:50:47;;;;;;;2.85;0.50;;;;;;;;;;5052765;28;20037;-81
2023/10/15 12:53:12;;;;;;;2.83;0.73;;;;;;;;;;5053048;28;20044;-82
2023/10/15 12:55:38;;;;;;;2.42;0.70;;;;;;;;;;5053305;28;20025;-82
2023/10/15 12:58:03;;;;;;;3.08;0.60;;;;;;;;;;5053335;28;20039;-82
2023/10/15 13:00:28;;;;;;;3.00;0.80;;;;;;;;;;5053083;28;20489;-82
2023/10/15 13:02:54;;;;;;;4.25;0.90;;;;;;;;;;5052653;28;20037;-82
2023/10/15 13:05:19;;;;;;;3.17;1.10;;;;;;;;;;5052896;28;20032;-82
2023/10/15 13:07:45;;;;;;;2.60;0.55;;;;;;;;;;5043588;28;20039;-82
2023/10/15 13:10:13;;;;;;;2.63;0.73;;;;;;;;;;5052632;28;20025;-82
2023/10/15 13:12:38;;;;;;;3.42;0.75;;;;;;;;;;5052793;28;20079;-82
2023/10/15 13:15:10;;;;;;;2.97;0.63;;;;;;;;;;5034621;28;20058;-82
2023/10/15 13:17:35;;;;;;;2.60;0.70;;;;;;;;;;5043049;28;20087;-82
2023/10/15 13:20:05;;;;;;;3.13;0.63;;;;;;;;;;5052507;28;20071;-82
2023/10/15 13:22:31;;;;;;;3.50;0.60;;;;;;;;;;5048672;28;20412;-82
2023/10/15 13:24:56;;;;;;;2.95;0.80;;;;;;;;;;5052490;28;20037;-82
2023/10/15 13:27:21;;;;;;;2.45;0.75;;;;;;;;;;5052530;28;20041;-82
2023/10/15 13:29:46;;;;;;;6.10;1.10;;;;;;;;;;5052271;28;20051;-82
2023/10/15 13:32:12;;;;;;;2.60;0.70;;;;;;;;;;5034368;28;20282;-82
2023/10/15 13:34:40;;;;;;;2.15;0.30;;;;;;;;;;5052092;28;20967;-82
2023/10/15 13:37:05;;;;;;;1.77;0.60;;;;;;;;;;5034546;28;20028;-82
2023/10/15 13:39:32;;;;;;;1.17;0.52;;;;;;;;;;5051904;28;20029;-82
2023/10/15 13:41:57;;;;;;;2.45;0.60;;;;;;;;;;5051812;28;20484;-83
2023/10/15 13:44:22;;;;;;;2.40;0.60;;;;;;;;;;5052125;28;20036;-83
2023/10/15 13:46:47;;;;;;;2.53;0.40;;;;;;;;;;5052135;28;20404;-83
2023/10/15 13:49:13;;;;;;;2.13;0.50;;;;;;;;;;5034323;28;20033;-83
2023/10/15 13:51:38;;;;;;;2.75;0.65;;;;;;;;;;5092144;22;20068;-73
2023/10/15 13:54:04;;;;;;;1.95;0.60;;;;;;;;;;5064451;28;20032;-74
2023/10/15 13:56:29;;;;;;;1.85;0.50;;;;;;;;;;5062243;28;20027;-76
2023/10/15 13:58:54;;;;;;;1.50;0.30;;;;;;;;;;5061471;28;20087;-75
2023/10/15 14:01:20;;;;;;;1.77;0.45;;;;;;;;;;5044258;28;20122;-76
2023/10/15 14:03:46;;;;;;;2.78;0.75;;;;;;;;;;5083342;28;20036;-76
2023/10/15 14:06:11;;;;;;;3.97;0.60;;;;;;;;;;5063593;28;20085;-76
2023/10/15 14:08:37;;;;;;;4.05;0.93;;;;;;;;;;5080392;28;20028;-76
2023/10/15 14:11:03;;;;;;;2.50;0.40;;;;;;;;;;5081616;28;20020;-77
2023/10/15 14:13:28;;;;;;;1.45;0.30;;;;;;;;;;5081871;28;20036;-76
2023/10/15 14:15:55;;;;;;;2.90;0.75;;;;;;;;;;5065645;28;20119;-76
2023/10/15 14:18:20;;;;;;;3.75;0.65;;;;;;;;;;5077063;28;20033;-76
2023/10/15 14:20:46;;;;;;;4.32;0.75;;;;;;;;;;5078267;28;20040;-76
2023/10/15 14:23:11;;;;;;;3.53;1.00;;;;;;;;;;5084765;28;20028;-76
2023/10/15 14:25:36;;;;;;;3.67;0.75;;;;;;;;;;5080896;28;20033;-76
2023/10/15 14:28:02;;;;;;;3.63;0.80;;;;;;;;;;5081073;28;20067;-76
2023/10/15 14:30:27;;;;;;;2.70;1.10;;;;;;;;;;5064635;28;20043;-76
2023/10/15 14:32:52;;;;;;;2.88;0.68;;;;;;;;;;5080352;28;20029;-76
2023/10/15 14:35:18;;;;;;;2.42;0.85;;;;;;;;;;5064846;28;20031;-77
2023/10/15 14:37:43;;;;;;;2.58;1.05;;;;;;;;;;5080818;28;20025;-77
2023/10/15 14:40:09;;;;;;;2.42;0.60;;;;;;;;;;5083621;28;20427;-75
2023/10/15 14:42:37;;;;;;;4.30;0.82;;;;;;;;;;5080417;28;20321;-77
2023/10/15 14:45:02;;;;;;;2.53;0.60;;;;;;;;;;5084992;28;20040;-77
2023/10/15 14:47:29;;;;;;;1.60;0.60;;;;;;;;;;5080967;28;20028;-77